Time;durP1;ratioP1;P1;durP2;ratioP2;P2;SDS_P1;SDS_P2;PMS_P1;PMS_P2;Temp;Humidity;BMP_temperature;BMP_pressure;BME280_temperature;BME280_humidity;BME280_pressure;Samples;Min_cycle;Max_cycle;Signal;HPM_P1;HPM_P2
2023/07/26 00:03:00;;;;;;;10.05;4.55;;;;;;;30.65;41.84;99434.73;1765367;80;21740;-80
2023/07/26 00:06:06;;;;;;;6.58;4.08;;;;;;;30.86;41.55;99454.68;1745724;82;21305;-79
2023/07/26 00:09:13;;;;;;;6.25;4.20;;;;;;;30.74;41.70;99451.13;1745653;82;21304;-79
2023/07/26 00:12:19;;;;;;;15.50;3.98;;;;;;;30.95;41.37;99449.03;1745531;82;21320;-79
2023/07/26 00:15:25;;;;;;;6.85;4.22;;;;;;;30.95;41.31;99447.63;1745598;82;21284;-79
2023/07/26 00:18:32;;;;;;;7.55;3.67;;;;;;;31.11;41.01;99434.67;1745639;82;21319;-79
2023/07/26 00:21:37;;;;;;;7.72;4.72;;;;;;;30.94;41.34;99430.45;1745668;82;21288;-79
2023/07/26 00:24:42;;;;;;;9.85;4.50;;;;;;;31.07;41.24;99444.97;1745625;82;21305;-79
2023/07/26 00:27:47;;;;;;;6.72;4.33;;;;;;;30.75;41.70;99451.36;1744159;82;21304;-79
2023/07/26 00:30:54;;;;;;;10.85;3.83;;;;;;;30.72;41.80;99443.55;1744347;82;21836;-79
2023/07/26 00:33:59;;;;;;;9.20;4.67;;;;;;;30.95;41.50;99448.45;1731508;82;21339;-79
2023/07/26 00:37:07;;;;;;;12.00;4.45;;;;;;;30.87;41.59;99435.78;1720022;82;22661;-79
2023/07/26 00:40:14;;;;;;;11.10;5.20;;;;;;;30.79;41.79;99443.90;1712037;83;21341;-79
2023/07/26 00:43:20;;;;;;;12.88;4.53;;;;;;;30.57;42.33;99427.08;1711751;83;21937;-80
2023/07/26 00:46:26;;;;;;;8.40;4.95;;;;;;;30.76;42.11;99414.09;1711845;83;21601;-80
2023/07/26 00:49:32;;;;;;;9.93;4.55;;;;;;;30.57;42.54;99401.69;1713426;83;21348;-81
2023/07/26 00:52:36;;;;;;;8.50;4.92;;;;;;;30.48;42.77;99389.56;1713488;82;21848;-80
2023/07/26 00:55:43;;;;;;;11.40;3.98;;;;;;;30.42;42.95;99387.48;1713655;83;21314;-80
2023/07/26 00:58:49;;;;;;;10.50;4.90;;;;;;;30.25;43.36;99372.80;1712263;83;21945;-80
2023/07/26 01:01:55;;;;;;;8.28;4.58;;;;;;;30.17;43.68;99362.34;1713370;83;21341;-80
2023/07/26 01:05:01;;;;;;;7.05;4.33;;;;;;;29.92;44.17;99346.15;1727602;82;21685;-80
2023/07/26 01:08:46;;;;;;;7.95;4.92;;;;;;;29.56;45.05;99330.31;1733686;82;21288;-80
2023/07/26 01:11:56;;;;;;;6.92;4.78;;;;;;;29.62;45.02;99331.81;1734345;82;21345;-80
2023/07/26 01:15:06;;;;;;;14.20;5.37;;;;;;;29.83;44.62;99317.11;1734245;82;21856;-80
2023/07/26 01:18:20;;;;;;;7.78;4.67;;;;;;;29.67;44.89;99310.53;1733401;82;21931;-79
2023/07/26 01:21:25;;;;;;;7.97;5.00;;;;;;;29.47;45.31;99309.70;1734465;82;21301;-80
2023/07/26 01:24:31;;;;;;;8.50;5.15;;;;;;;29.18;46.15;99289.95;1733093;82;21341;-80
2023/07/26 01:27:37;;;;;;;6.35;4.58;;;;;;;29.16;46.32;99279.58;1733600;82;21316;-79
2023/07/26 01:30:44;;;;;;;6.83;4.22;;;;;;;29.22;46.20;99274.66;1736236;82;21876;-80
2023/07/26 01:33:51;;;;;;;11.28;4.97;;;;;;;29.31;46.14;99252.14;1734469;82;21868;-80
2023/07/26 01:36:57;;;;;;;9.63;4.83;;;;;;;29.06;46.61;99231.19;1735508;82;21304;-80
2023/07/26 01:39:56;;;;;;;14.18;5.00;;;;;;;29.18;46.48;99226.61;1735607;82;21317;-80
2023/07/26 01:43:02;;;;;;;9.80;4.92;;;;;;;29.17;46.56;99240.44;1735466;82;21325;-80
2023/07/26 01:46:07;;;;;;;5.92;4.33;;;;;;;29.36;46.16;99246.36;1735471;82;21317;-80
2023/07/26 01:49:12;;;;;;;9.20;4.80;;;;;;;29.15;46.67;99239.92;1734308;82;21925;-80
2023/07/26 01:52:17;;;;;;;6.55;4.40;;;;;;;29.13;46.93;99242.83;1735482;82;21308;-80
2023/07/26 01:55:22;;;;;;;9.48;4.95;;;;;;;29.29;46.63;99252.47;1735438;82;21892;-80
2023/07/26 01:58:28;;;;;;;11.18;5.10;;;;;;;29.22;46.87;99243.11;1734268;82;21336;-80
2023/07/26 02:01:34;;;;;;;10.82;4.83;;;;;;;29.32;46.91;99236.93;1747854;81;21728;-80
2023/07/26 02:04:40;;;;;;;7.42;4.83;;;;;;;29.44;46.82;99230.06;1758060;81;21321;-80
2023/07/26 02:07:46;;;;;;;6.92;4.80;;;;;;;29.40;47.03;99229.06;1774599;81;21303;-80
2023/07/26 02:10:47;;;;;;;11.07;5.03;;;;;;;29.39;47.19;99225.41;1775107;81;21296;-80
2023/07/26 02:13:55;;;;;;;6.62;4.75;;;;;;;29.45;47.23;99220.45;1754415;81;21291;-80
2023/07/26 02:17:00;;;;;;;8.65;4.50;;;;;;;29.51;47.09;99212.95;1773103;81;21295;-80
2023/07/26 02:20:06;;;;;;;8.78;4.95;;;;;;;29.43;47.48;99205.30;1772995;81;21370;-80
2023/07/26 02:23:11;;;;;;;7.97;4.90;;;;;;;29.55;47.12;99206.12;1774475;81;21303;-80
2023/07/26 02:26:16;;;;;;;15.10;5.85;;;;;;;29.50;47.20;99211.84;1774421;81;21307;-80
2023/07/26 02:29:21;;;;;;;9.63;4.62;;;;;;;29.37;47.56;99205.80;1773796;81;21323;-80
2023/07/26 02:32:29;;;;;;;8.35;5.05;;;;;;;29.52;47.45;99208.97;1774541;81;21327;-80
2023/07/26 02:35:34;;;;;;;8.08;4.65;;;;;;;29.49;47.51;99200.34;1774531;81;21287;-80
2023/07/26 02:38:41;;;;;;;12.00;5.37;;;;;;;29.37;47.93;99204.39;1774371;81;21343;-80
2023/07/26 02:41:40;;;;;;;12.70;4.55;;;;;;;29.58;47.73;99211.66;1774551;81;21295;-80
2023/07/26 02:44:34;;;;;;;11.08;4.85;;;;;;;29.53;47.79;99252.05;1773057;81;21311;-80
2023/07/26 02:47:41;;;;;;;7.72;5.03;;;;;;;29.61;47.77;99289.31;1773173;81;21295;-80
2023/07/26 02:50:48;;;;;;;11.70;5.75;;;;;;;29.51;48.01;99293.81;1774410;81;22589;-80
2023/07/26 02:53:53;;;;;;;11.68;5.30;;;;;;;29.62;47.96;99299.42;1774475;81;21330;-80
2023/07/26 02:57:00;;;;;;;10.05;5.22;;;;;;;29.98;47.21;99302.57;1774529;81;21319;-80
2023/07/26 03:00:07;;;;;;;7.55;5.50;;;;;;;30.06;46.94;99289.04;1773527;81;21914;-80
2023/07/26 03:03:12;;;;;;;9.20;5.10;;;;;;;30.68;45.58;99294.38;1773777;81;21394;-80
2023/07/26 03:06:19;;;;;;;10.78;5.67;;;;;;;30.77;45.18;99298.05;1771083;81;21964;-80
2023/07/26 03:09:25;;;;;;;9.75;5.12;;;;;;;30.46;45.65;99301.63;1760786;81;21883;-80
2023/07/26 03:12:31;;;;;;;8.98;5.45;;;;;;;30.94;44.57;99296.34;1761130;81;21901;-80
2023/07/26 03:15:38;;;;;;;10.43;5.40;;;;;;;31.35;43.50;99288.67;1761144;81;21332;-80
2023/07/26 03:18:43;;;;;;;8.25;5.45;;;;;;;32.11;41.72;99298.22;1759759;81;21319;-80
2023/07/26 03:21:50;;;;;;;6.92;4.75;;;;;;;32.87;40.10;99291.39;1759853;81;21201;-80
2023/07/26 03:24:55;;;;;;;10.05;5.58;;;;;;;32.84;40.22;99290.08;1761245;81;21335;-80
2023/07/26 03:28:03;;;;;;;9.35;5.17;;;;;;;32.14;41.48;99284.81;1761192;81;21315;-80
2023/07/26 03:31:09;;;;;;;10.93;5.50;;;;;;;32.33;41.16;99279.49;1759883;81;21328;-80
2023/07/26 03:34:15;;;;;;;9.60;5.65;;;;;;;32.48;41.01;99281.71;1761133;81;21657;-80
2023/07/26 03:37:22;;;;;;;13.68;5.42;;;;;;;32.52;41.08;99293.17;1761342;81;21309;-80
2023/07/26 03:40:27;;;;;;;9.03;5.67;;;;;;;32.34;41.55;99293.88;1760326;81;21340;-80
2023/07/26 03:43:26;;;;;;;10.10;5.50;;;;;;;32.50;41.61;99301.16;1761059;81;21304;-80
2023/07/26 03:46:18;;;;;;;9.33;5.60;;;;;;;32.78;41.47;99297.97;1761196;81;21295;-80
2023/07/26 03:49:24;;;;;;;9.40;5.33;;;;;;;32.98;41.24;99302.54;1761415;81;21330;-80
2023/07/26 03:52:29;;;;;;;10.15;5.40;;;;;;;33.33;40.58;99306.63;1761146;81;21309;-80
2023/07/26 03:55:28;;;;;;;9.13;5.08;;;;;;;33.41;40.61;99312.56;1761106;81;21304;-80
2023/07/26 03:58:20;;;;;;;8.63;5.35;;;;;;;33.14;41.16;99301.30;1761149;81;21300;-80
2023/07/26 04:01:07;;;;;;;9.23;4.85;;;;;;;33.44;40.34;99299.11;1760111;81;21335;-80
2023/07/26 04:04:07;;;;;;;7.40;4.80;;;;;;;33.95;39.57;99304.67;1759774;81;21315;-80
2023/07/26 04:07:13;;;;;;;8.78;4.62;;;;;;;34.24;38.99;99311.23;1759885;81;21649;-80
2023/07/26 04:10:20;;;;;;;12.18;5.17;;;;;;;33.96;39.15;99306.91;1762676;81;21315;-80
2023/07/26 04:13:26;;;;;;;15.35;5.28;;;;;;;34.15;38.79;99308.53;1764159;81;21324;-80
2023/07/26 04:16:31;;;;;;;17.00;5.30;;;;;;;34.23;38.78;99307.57;1764874;81;21303;-80
2023/07/26 04:19:36;;;;;;;14.75;4.87;;;;;;;34.67;37.79;99310.52;1762673;80;21866;-80
2023/07/26 04:22:42;;;;;;;7.33;4.40;;;;;;;34.99;37.19;99318.56;1764123;81;21942;-80
2023/07/26 04:25:49;;;;;;;10.30;3.77;;;;;;;35.13;36.51;99318.13;1764116;81;21304;-80
2023/07/26 04:28:55;;;;;;;11.08;4.37;;;;;;;34.79;36.29;99317.58;1764042;81;21817;-80
2023/07/26 04:32:00;;;;;;;8.63;3.90;;;;;;;35.25;35.74;99322.92;1762866;81;21843;-80
2023/07/26 04:35:06;;;;;;;8.60;4.28;;;;;;;35.54;34.87;99317.41;1764057;81;21335;-80
2023/07/26 04:38:06;;;;;;;18.40;4.53;;;;;;;35.52;34.77;99327.70;1764128;81;21332;-80
2023/07/26 04:41:13;;;;;;;11.70;3.62;;;;;;;35.82;34.14;99333.76;1763631;81;21347;-80
2023/07/26 04:44:19;;;;;;;11.20;3.75;;;;;;;35.96;34.00;99332.48;1764139;81;21308;-80
2023/07/26 04:47:24;;;;;;;6.55;3.95;;;;;;;36.21;33.16;99335.91;1764163;81;21252;-80
2023/07/26 04:50:30;;;;;;;11.25;3.67;;;;;;;35.98;33.54;99340.05;1763969;81;21882;-80
2023/07/26 04:53:36;;;;;;;7.28;3.80;;;;;;;36.25;33.13;99342.52;1764063;81;21205;-80
2023/07/26 04:56:42;;;;;;;8.00;3.47;;;;;;;36.11;33.57;99343.00;1764103;81;21260;-80
2023/07/26 04:59:48;;;;;;;12.15;4.40;;;;;;;35.94;33.53;99337.67;1762661;81;21303;-80
2023/07/26 05:02:54;;;;;;;7.83;4.10;;;;;;;35.84;33.36;99339.07;1763426;81;21902;-80
2023/07/26 05:06:02;;;;;;;10.98;4.17;;;;;;;36.06;33.15;99344.12;1763915;81;21351;-80
2023/07/26 05:09:09;;;;;;;7.85;3.60;;;;;;;36.58;31.91;99349.17;1760817;81;21910;-80
2023/07/26 05:12:16;;;;;;;10.95;3.80;;;;;;;37.05;31.31;99348.95;1759631;81;21327;-80
2023/07/26 05:15:21;;;;;;;15.32;4.55;;;;;;;37.17;30.86;99349.40;1759717;81;21886;-80
2023/07/26 05:18:27;;;;;;;7.37;3.70;;;;;;;36.62;31.49;99351.50;1761050;81;21297;-80
2023/07/26 05:21:34;;;;;;;9.30;3.83;;;;;;;36.55;31.45;99349.30;1760648;81;21647;-80
2023/07/26 05:24:33;;;;;;;11.80;4.33;;;;;;;36.44;31.73;99354.56;1761161;81;21331;-80
2023/07/26 05:27:25;;;;;;;15.75;3.60;;;;;;;36.68;30.50;99354.27;1752057;79;21337;-80
2023/07/26 05:30:31;;;;;;;9.73;3.80;;;;;;;36.64;30.71;99354.79;1749315;82;21306;-80
2023/07/26 05:33:37;;;;;;;8.85;3.65;;;;;;;36.17;31.27;99348.62;1750337;82;21886;-80
2023/07/26 05:36:42;;;;;;;8.45;4.00;;;;;;;36.77;30.29;99349.17;1750574;82;21298;-80
2023/07/26 05:39:48;;;;;;;10.15;3.92;;;;;;;36.77;30.29;99349.17;1786807;79;21287;-80
2023/07/26 05:42:54;;;;;;;9.73;3.45;;;;;;;36.81;30.37;99347.22;1770842;79;21547;-80
2023/07/26 05:45:59;;;;;;;10.88;3.22;;;;;;;37.01;29.59;99346.63;1768801;81;21295;-80
2023/07/26 05:49:05;;;;;;;4.65;3.10;;;;;;;37.07;28.67;99328.61;1769807;81;21303;-80
2023/07/26 05:52:13;;;;;;;6.85;3.55;;;;;;;37.13;28.57;99322.84;1769407;81;21311;-80
2023/07/26 05:55:19;;;;;;;11.60;3.27;;;;;;;36.91;27.83;99316.51;1769872;81;21335;-80
2023/07/26 05:58:26;;;;;;;9.03;3.50;;;;;;;36.32;27.88;99297.11;1768657;81;21331;-80
2023/07/26 06:01:32;;;;;;;5.25;3.30;;;;;;;36.32;27.88;99297.11;1769901;81;21304;-80
2023/07/26 06:04:39;;;;;;;8.03;3.30;;;;;;;36.78;27.91;99310.11;1769905;81;21190;-80
2023/07/26 06:07:45;;;;;;;9.15;3.17;;;;;;;37.07;28.65;99308.06;1770153;81;21318;-80
2023/07/26 06:10:45;;;;;;;11.53;4.45;;;;;;;36.98;29.25;99313.78;1734941;82;21319;-80
2023/07/26 06:13:52;;;;;;;9.35;3.85;;;;;;;36.76;29.22;99323.31;1708369;84;21923;-80
2023/07/26 06:16:57;;;;;;;9.03;3.77;;;;;;;37.37;28.39;99322.27;1708358;84;21346;-81
2023/07/26 06:20:05;;;;;;;7.17;3.75;;;;;;;37.89;27.03;99325.84;1709501;84;21314;-80
2023/07/26 06:23:11;;;;;;;6.12;3.72;;;;;;;37.55;27.04;99324.25;1707930;84;21333;-80
2023/07/26 06:26:17;;;;;;;10.38;4.05;;;;;;;37.67;27.26;99326.06;1717572;82;21283;-80
2023/07/26 06:29:23;;;;;;;10.03;4.30;;;;;;;37.65;26.97;99335.63;1734037;82;21336;-80
2023/07/26 06:32:29;;;;;;;9.28;3.92;;;;;;;37.69;26.82;99331.37;1738599;82;21331;-80
2023/07/26 06:35:35;;;;;;;14.93;4.03;;;;;;;37.94;26.73;99321.84;1738953;82;21347;-80
2023/07/26 06:38:40;;;;;;;6.90;3.40;;;;;;;38.38;26.29;99326.38;1739158;82;21320;-80
2023/07/26 06:41:46;;;;;;;8.65;3.60;;;;;;;38.27;26.97;99316.22;1725878;82;21327;-81
2023/07/26 06:44:53;;;;;;;12.80;3.75;;;;;;;38.50;26.90;99326.77;1735134;82;21272;-81
2023/07/26 06:47:58;;;;;;;6.78;3.55;;;;;;;38.59;26.19;99320.15;1740376;82;21612;-81
2023/07/26 06:51:05;;;;;;;18.20;3.87;;;;;;;38.49;26.28;99317.95;1740644;82;21344;-81
2023/07/26 06:54:10;;;;;;;9.95;3.72;;;;;;;38.21;26.36;99322.05;1739470;82;22475;-80
2023/07/26 06:57:16;;;;;;;8.00;3.33;;;;;;;38.06;26.56;99325.28;1740841;82;21307;-80
2023/07/26 07:00:22;;;;;;;10.18;3.50;;;;;;;38.01;26.94;99326.22;1711363;84;21307;-80
2023/07/26 07:03:29;;;;;;;11.03;3.47;;;;;;;38.20;26.78;99324.67;1716698;82;21299;-80
2023/07/26 07:06:34;;;;;;;9.93;4.00;;;;;;;38.33;27.22;99318.98;1738551;82;21914;-80
2023/07/26 07:09:39;;;;;;;9.13;3.22;;;;;;;38.32;27.88;99324.47;1740297;82;21295;-80
2023/07/26 07:12:46;;;;;;;10.13;4.22;;;;;;;38.55;26.81;99334.98;1767891;81;21169;-80
2023/07/26 07:15:52;;;;;;;8.90;4.28;;;;;;;38.58;25.89;99324.19;1769973;81;21311;-80
2023/07/26 07:18:57;;;;;;;7.28;3.08;;;;;;;38.39;25.73;99334.34;1768160;81;21300;-80
2023/07/26 07:22:02;;;;;;;16.85;4.03;;;;;;;38.13;26.40;99335.18;1769484;81;21339;-80
2023/07/26 07:25:09;;;;;;;12.68;3.75;;;;;;;38.47;26.03;99335.48;1769519;81;21294;-79
2023/07/26 07:28:15;;;;;;;11.63;4.08;;;;;;;38.02;26.20;99333.59;1769612;81;21315;-80
2023/07/26 07:31:20;;;;;;;12.05;3.98;;;;;;;38.26;25.91;99335.99;1768074;81;21297;-80
2023/07/26 07:34:26;;;;;;;12.15;3.70;;;;;;;38.48;26.32;99340.59;1768894;81;21364;-80
2023/07/26 07:37:31;;;;;;;11.73;4.05;;;;;;;38.19;26.58;99345.87;1749135;81;21674;-80
2023/07/26 07:40:37;;;;;;;22.07;3.92;;;;;;;38.56;26.17;99343.77;1752799;81;21318;-79
2023/07/26 07:43:42;;;;;;;14.28;3.72;;;;;;;38.16;26.88;99347.23;1759062;81;21301;-80
2023/07/26 07:46:47;;;;;;;11.78;3.83;;;;;;;38.49;26.30;99341.65;1760352;81;22300;-80
2023/07/26 07:49:54;;;;;;;11.97;3.98;;;;;;;39.11;25.31;99345.49;1769376;81;22454;-80
2023/07/26 07:53:00;;;;;;;15.88;3.62;;;;;;;39.30;24.89;99329.59;1768463;81;21307;-80
2023/07/26 07:56:06;;;;;;;9.55;3.58;;;;;;;39.24;25.42;99338.32;1769059;81;21315;-80
2023/07/26 07:59:12;;;;;;;10.68;3.60;;;;;;;39.16;25.38;99349.42;1751525;81;21341;-80
2023/07/26 08:02:18;;;;;;;11.73;4.10;;;;;;;39.52;24.93;99336.92;1736814;82;21372;-80
2023/07/26 08:05:25;;;;;;;23.40;4.53;;;;;;;39.68;25.37;99333.23;1736273;82;21353;-80
2023/07/26 08:08:24;;;;;;;11.20;3.00;;;;;;;39.78;24.38;99348.23;1737402;82;22700;-80
2023/07/26 08:11:16;;;;;;;16.95;3.83;;;;;;;39.60;24.48;99344.36;1738288;82;21312;-80
2023/07/26 08:14:22;;;;;;;13.98;3.58;;;;;;;39.17;24.86;99343.91;1749443;81;22337;-79
2023/07/26 08:17:27;;;;;;;9.10;3.77;;;;;;;38.27;25.59;99329.67;1768523;81;21323;-80
2023/07/26 08:20:33;;;;;;;12.78;3.67;;;;;;;38.41;25.46;99337.05;1768928;81;21313;-80
2023/07/26 08:23:43;;;;;;;16.05;4.15;;;;;;;38.26;25.48;99331.71;1768940;81;21307;-80
2023/07/26 08:26:47;;;;;;;11.00;3.80;;;;;;;38.21;26.11;99312.06;1769381;81;21299;-80
2023/07/26 08:29:54;;;;;;;14.23;3.62;;;;;;;38.26;25.56;99330.28;1744547;81;21364;-81
2023/07/26 08:33:01;;;;;;;8.08;4.00;;;;;;;38.34;26.07;99319.80;1757736;81;21343;-80
2023/07/26 08:36:07;;;;;;;9.60;3.70;;;;;;;38.54;26.39;99309.06;1769179;81;21301;-80
2023/07/26 08:39:14;;;;;;;13.60;4.08;;;;;;;38.84;25.55;99312.72;1768566;81;21712;-80
2023/07/26 08:42:21;;;;;;;8.13;3.40;;;;;;;39.00;25.31;99325.95;1767631;81;21335;-80
2023/07/26 08:45:26;;;;;;;7.58;3.33;;;;;;;39.02;25.58;99327.83;1737950;82;21358;-80
2023/07/26 08:48:32;;;;;;;12.80;3.17;;;;;;;39.18;25.47;99330.44;1739333;82;21299;-80
2023/07/26 08:51:39;;;;;;;11.70;3.33;;;;;;;39.40;25.00;99318.64;1739343;82;21902;-80
2023/07/26 08:54:45;;;;;;;18.32;3.55;;;;;;;39.30;24.95;99318.14;1738726;82;21882;-80
2023/07/26 08:57:52;;;;;;;20.72;3.70;;;;;;;39.42;25.02;99319.88;1739327;82;21312;-80
2023/07/26 09:00:57;;;;;;;5.58;3.10;;;;;;;39.28;25.32;99319.74;1738716;82;21350;-79
2023/07/26 09:04:04;;;;;;;10.15;3.42;;;;;;;39.43;25.04;99313.55;1765778;81;21355;-80
2023/07/26 09:07:11;;;;;;;5.62;3.40;;;;;;;39.62;24.94;99317.63;1767782;79;21304;-80
2023/07/26 09:10:33;;;;;;;13.28;3.30;;;;;;;39.65;24.45;99315.41;1769666;81;21323;-80
2023/07/26 09:13:40;;;;;;;14.38;3.85;;;;;;;39.41;25.25;99297.40;1749874;80;21317;-80
2023/07/26 09:16:46;;;;;;;13.15;3.02;;;;;;;39.48;25.16;99307.48;1738699;82;21883;-80
2023/07/26 09:19:51;;;;;;;8.50;4.00;;;;;;;39.46;25.23;99310.72;1744556;82;21927;-80
2023/07/26 09:23:16;;;;;;;10.45;3.12;;;;;;;39.40;25.33;99308.63;1744272;82;21311;-80
2023/07/26 09:26:22;;;;;;;15.48;3.67;;;;;;;39.55;25.44;99297.52;1743550;82;21382;-80
2023/07/26 09:29:21;;;;;;;11.88;3.75;;;;;;;39.70;26.19;99300.73;1723833;82;21309;-80
2023/07/26 09:32:13;;;;;;;6.35;3.45;;;;;;;39.88;25.86;99302.92;1738277;82;21272;-80
2023/07/26 09:35:19;;;;;;;7.53;3.70;;;;;;;39.84;25.45;99300.02;1744438;82;21319;-82
2023/07/26 09:38:27;;;;;;;22.87;3.87;;;;;;;40.15;25.45;99292.91;1725894;82;21276;-81
2023/07/26 09:41:31;;;;;;;17.45;4.50;;;;;;;40.15;25.88;99307.22;1742416;82;21295;-81
2023/07/26 09:44:37;;;;;;;14.23;3.30;;;;;;;40.31;25.61;99307.70;1738881;82;21350;-81
2023/07/26 09:47:44;;;;;;;8.83;3.25;;;;;;;40.30;25.71;99301.78;1744083;82;21299;-80
2023/07/26 09:50:51;;;;;;;7.58;3.60;;;;;;;40.40;25.46;99305.92;1743698;82;21332;-81
2023/07/26 09:53:53;;;;;;;9.33;3.87;;;;;;;40.55;25.84;99286.77;1742242;82;21878;-81
2023/07/26 09:56:55;;;;;;;19.87;4.25;;;;;;;40.41;25.63;99285.25;1729057;82;21308;-81
2023/07/26 10:00:02;;;;;;;7.90;3.70;;;;;;;40.24;26.00;99273.31;1716599;82;21312;-81
2023/07/26 10:03:07;;;;;;;7.60;3.95;;;;;;;40.66;25.64;99277.63;1712506;83;21393;-80
2023/07/26 10:06:14;;;;;;;16.62;3.95;;;;;;;40.60;25.44;99270.63;1711993;83;21337;-80
2023/07/26 10:09:22;;;;;;;10.82;4.10;;;;;;;39.83;25.93;99256.27;1715853;82;21281;-80
2023/07/26 10:12:29;;;;;;;12.18;4.40;;;;;;;40.37;25.59;99263.74;1738883;82;21336;-80
2023/07/26 10:15:35;;;;;;;8.30;3.87;;;;;;;40.32;25.43;99257.79;1763030;79;21899;-80
2023/07/26 10:18:40;;;;;;;14.50;3.27;;;;;;;40.47;25.20;99257.88;1769888;81;21867;-80
2023/07/26 10:21:46;;;;;;;21.30;4.42;;;;;;;40.05;25.93;99258.66;1737268;82;21331;-80
2023/07/26 10:24:52;;;;;;;17.50;4.42;;;;;;;39.98;26.11;99256.36;1736326;82;21928;-80
2023/07/26 10:27:59;;;;;;;24.90;4.37;;;;;;;40.02;25.65;99251.48;1737107;82;21307;-80
2023/07/26 10:31:04;;;;;;;12.35;4.40;;;;;;;40.39;25.39;99247.61;1738186;82;21312;-80
2023/07/26 10:34:10;;;;;;;15.48;4.75;;;;;;;40.57;24.56;99242.80;1755406;81;21323;-80
2023/07/26 10:37:25;;;;;;;11.60;4.00;;;;;;;40.49;24.12;99235.36;1734779;82;21372;-80
2023/07/26 10:40:44;;;;;;;10.72;3.90;;;;;;;40.65;23.90;99248.73;1743589;82;21767;-80
2023/07/26 10:43:51;;;;;;;10.58;3.52;;;;;;;40.97;24.10;99223.66;1755070;80;21344;-80
2023/07/26 10:47:04;;;;;;;22.65;4.08;;;;;;;40.83;24.02;99235.89;1753417;81;21315;-80
2023/07/26 10:50:13;;;;;;;19.48;3.50;;;;;;;40.79;23.69;99226.45;1737508;81;21313;-80
2023/07/26 10:53:42;;;;;;;25.57;5.08;;;;;;;40.92;23.63;99219.73;1737660;82;21219;-80
2023/07/26 10:56:47;;;;;;;16.50;4.60;;;;;;;40.81;23.46;99204.77;1748996;82;21354;-80
2023/07/26 11:00:04;;;;;;;17.80;4.47;;;;;;;40.88;23.18;99219.10;1748515;82;21365;-80
2023/07/26 11:03:11;;;;;;;16.85;4.65;;;;;;;40.72;22.56;99210.08;1748756;82;21619;-80
2023/07/26 11:06:17;;;;;;;32.98;4.72;;;;;;;40.56;22.89;99212.48;1750311;82;21640;-80
2023/07/26 11:09:27;;;;;;;13.85;4.00;;;;;;;40.36;22.68;99208.50;1757234;79;22249;-80
2023/07/26 11:12:21;;;;;;;20.40;4.97;;;;;;;40.24;22.87;99210.31;1804189;79;21307;-80
2023/07/26 11:15:41;;;;;;;21.73;4.60;;;;;;;40.26;22.55;99202.74;1802949;79;21953;-80
2023/07/26 11:18:48;;;;;;;12.80;4.70;;;;;;;40.47;22.16;99194.85;1802182;79;22498;-80
2023/07/26 11:21:53;;;;;;;13.65;4.83;;;;;;;40.50;21.81;99199.75;1783890;79;21299;-80
2023/07/26 11:24:59;;;;;;;16.00;4.90;;;;;;;40.48;21.76;99200.78;1772322;79;21890;-80
2023/07/26 11:28:05;;;;;;;12.50;4.70;;;;;;;40.38;21.69;99197.27;1770774;81;21337;-80
2023/07/26 11:31:11;;;;;;;32.88;5.58;;;;;;;41.03;21.17;99189.05;1751468;81;21864;-80
2023/07/26 11:34:25;;;;;;;16.17;4.37;;;;;;;41.11;21.63;99187.20;1771699;81;21318;-80
2023/07/26 11:37:31;;;;;;;19.80;4.90;;;;;;;41.32;21.35;99195.63;1772767;81;21892;-80
2023/07/26 11:40:37;;;;;;;21.20;5.65;;;;;;;41.30;20.89;99195.20;1773083;81;21318;-80
2023/07/26 11:43:45;;;;;;;25.77;5.00;;;;;;;41.24;21.03;99207.70;1773339;81;21305;-80
2023/07/26 11:46:51;;;;;;;23.65;5.72;;;;;;;41.50;20.90;99209.95;1773177;81;21348;-80
2023/07/26 11:49:58;;;;;;;24.80;5.15;;;;;;;41.32;20.72;99208.53;1773134;81;22216;-80
2023/07/26 11:53:14;;;;;;;30.75;5.70;;;;;;;41.09;21.03;99213.23;1771608;81;21329;-80
2023/07/26 11:56:21;;;;;;;18.25;5.22;;;;;;;40.76;21.18;99215.20;1770617;81;21935;-80
2023/07/26 11:59:27;;;;;;;17.75;5.20;;;;;;;41.21;20.62;99212.81;1771715;81;21301;-80
2023/07/26 12:02:33;;;;;;;29.70;5.58;;;;;;;41.27;20.73;99221.23;1771206;81;21732;-80
2023/07/26 12:05:39;;;;;;;21.73;4.85;;;;;;;41.20;20.50;99217.53;1772923;81;21295;-80
2023/07/26 12:08:47;;;;;;;16.20;5.12;;;;;;;40.79;20.79;99215.81;1770121;81;21343;-80
2023/07/26 12:11:58;;;;;;;20.90;5.37;;;;;;;40.84;20.52;99209.70;1771456;81;21980;-80
2023/07/26 12:15:04;;;;;;;17.50;5.30;;;;;;;40.84;20.33;99222.61;1772686;81;21889;-80
2023/07/26 12:18:10;;;;;;;22.75;5.22;;;;;;;40.82;20.11;99210.70;1769679;80;21910;-80
2023/07/26 12:21:17;;;;;;;24.98;5.33;;;;;;;40.74;20.25;99208.23;1740127;82;21271;-80
2023/07/26 12:24:27;;;;;;;13.72;5.25;;;;;;;40.77;20.62;99196.78;1759787;79;21274;-80
2023/07/26 12:27:31;;;;;;;22.02;5.22;;;;;;;41.21;20.16;99202.77;1730590;83;21361;-80
2023/07/26 12:30:37;;;;;;;21.60;5.70;;;;;;;41.39;20.28;99202.80;1767064;81;21300;-80
2023/07/26 12:33:43;;;;;;;18.52;5.55;;;;;;;41.54;20.08;99202.17;1770131;81;22012;-80
2023/07/26 12:36:56;;;;;;;27.58;6.05;;;;;;;41.54;20.00;99197.86;1755497;81;21304;-80
2023/07/26 12:40:02;;;;;;;28.67;6.05;;;;;;;41.55;20.01;99193.17;1740924;82;21311;-80
2023/07/26 12:43:09;;;;;;;24.77;5.87;;;;;;;41.54;20.63;99191.50;1765371;81;21610;-80
2023/07/26 12:46:15;;;;;;;25.02;5.50;;;;;;;41.38;20.96;99200.36;1769186;79;21304;-80
2023/07/26 12:49:20;;;;;;;18.45;5.25;;;;;;;41.46;21.25;99200.56;1765704;81;21363;-80
2023/07/26 12:52:27;;;;;;;22.05;5.17;;;;;;;41.21;21.45;99196.22;1769784;81;21177;-80
2023/07/26 12:55:33;;;;;;;27.22;5.55;;;;;;;41.00;21.76;99192.75;1770026;81;21866;-80
2023/07/26 12:58:38;;;;;;;22.17;6.45;;;;;;;40.92;21.39;99194.75;1769568;81;21331;-80
2023/07/26 13:01:46;;;;;;;22.27;5.30;;;;;;;40.98;21.56;99188.84;1760960;81;21274;-80
2023/07/26 13:04:52;;;;;;;15.90;5.08;;;;;;;40.74;21.84;99191.03;1757350;81;21335;-80
2023/07/26 13:08:00;;;;;;;21.97;5.50;;;;;;;40.85;21.89;99195.57;1768620;81;21371;-80
2023/07/26 13:11:05;;;;;;;21.57;5.33;;;;;;;40.33;22.46;99195.00;1770077;81;21347;-80
2023/07/26 13:14:11;;;;;;;22.75;5.30;;;;;;;40.85;21.92;99201.30;1769900;81;21847;-80
2023/07/26 13:17:17;;;;;;;19.67;5.42;;;;;;;41.07;21.28;99202.16;1769196;81;21289;-80
2023/07/26 13:20:22;;;;;;;15.00;5.37;;;;;;;40.79;21.65;99188.58;1771612;81;21325;-80
2023/07/26 13:23:28;;;;;;;16.12;5.47;;;;;;;40.70;21.09;99180.17;1771645;81;21336;-80
2023/07/26 13:26:34;;;;;;;29.85;5.62;;;;;;;40.60;20.53;99181.80;1773081;81;21326;-80
2023/07/26 13:29:40;;;;;;;22.07;5.35;;;;;;;40.62;20.59;99170.77;1772137;81;21368;-80
2023/07/26 13:32:47;;;;;;;11.08;5.45;;;;;;;40.19;21.09;99181.25;1772614;81;21313;-80
2023/07/26 13:35:54;;;;;;;20.68;5.70;;;;;;;40.06;21.18;99180.75;1772236;81;21332;-80
2023/07/26 13:39:00;;;;;;;15.70;5.10;;;;;;;40.29;20.61;99191.92;1772594;81;21340;-80
2023/07/26 13:42:06;;;;;;;19.55;6.00;;;;;;;40.54;20.41;99181.99;1773588;81;21349;-80
2023/07/26 13:45:13;;;;;;;12.70;5.30;;;;;;;39.79;20.67;99181.02;1772369;81;21940;-80
2023/07/26 13:48:19;;;;;;;12.85;5.60;;;;;;;40.25;20.34;99174.72;1772232;81;21896;-80
2023/07/26 13:51:25;;;;;;;22.37;5.78;;;;;;;40.11;20.59;99173.23;1772499;81;21305;-80
2023/07/26 13:54:31;;;;;;;15.63;5.17;;;;;;;40.20;21.20;99172.25;1774209;81;21964;-80
2023/07/26 13:57:37;;;;;;;15.00;5.10;;;;;;;40.15;21.35;99171.82;1774140;81;21301;-80
2023/07/26 14:00:43;;;;;;;14.30;5.67;;;;;;;39.90;21.33;99161.05;1772837;81;21309;-80
2023/07/26 14:03:49;;;;;;;15.03;5.33;;;;;;;40.07;20.82;99156.61;1772977;81;21332;-80
2023/07/26 14:06:55;;;;;;;14.23;5.33;;;;;;;40.16;20.43;99158.52;1772728;81;21329;-80
2023/07/26 14:10:01;;;;;;;18.60;5.30;;;;;;;39.93;21.11;99160.84;1773428;81;21352;-80
2023/07/26 14:13:15;;;;;;;13.05;4.22;;;;;;;40.03;22.29;99145.75;1877407;76;22224;-80
2023/07/26 14:16:21;;;;;;;24.63;5.05;;;;;;;39.99;23.37;99152.07;1781290;80;21861;-80
2023/07/26 14:19:27;;;;;;;20.68;5.53;;;;;;;39.77;24.56;99149.13;1813244;79;21292;-80
2023/07/26 14:22:33;;;;;;;23.85;4.70;;;;;;;39.83;24.88;99146.08;1780385;80;21306;-80
2023/07/26 14:25:39;;;;;;;26.65;5.60;;;;;;;39.74;24.82;99151.34;1781433;80;21666;-80
2023/07/26 14:28:45;;;;;;;19.48;4.70;;;;;;;39.65;24.94;99146.59;1781406;80;21308;-80
2023/07/26 14:31:52;;;;;;;20.62;4.80;;;;;;;39.63;24.95;99151.06;1780909;80;21339;-80